sensor_id;sensor_type;location;lat;lon;timestamp;pressure;altitude;pressure_sealevel;temperature;humidity
44697;BME280;57264;47.480;19.354;2023-02-28T09:46:00;100261.00;;;21.48;48.65
44697;BME280;57264;47.480;19.354;2023-02-28T09:51:05;100289.94;;;10.38;35.35
44697;BME280;57264;47.480;19.354;2023-02-28T09:53:37;100289.38;;;8.90;38.42
44697;BME280;57264;47.480;19.354;2023-02-28T09:56:09;100306.31;;;7.24;42.61
44697;BME280;57264;47.480;19.354;2023-02-28T10:01:39;100301.03;;;5.25;46.89
44697;BME280;57264;47.480;19.354;2023-02-28T10:04:16;100300.53;;;5.11;47.34
44697;BME280;57264;47.480;19.354;2023-02-28T10:06:49;100304.44;;;4.61;49.91
44697;BME280;57264;47.480;19.354;2023-02-28T10:09:31;100304.25;;;4.16;51.38
44697;BME280;57264;47.480;19.354;2023-02-28T10:12:03;100307.66;;;3.68;51.29
44697;BME280;57264;47.480;19.354;2023-02-28T10:14:32;100296.72;;;4.03;51.74
44697;BME280;57264;47.480;19.354;2023-02-28T10:19:35;100303.84;;;3.92;50.24
44697;BME280;57264;47.480;19.354;2023-02-28T10:22:17;100297.69;;;3.64;51.49
44697;BME280;57264;47.480;19.354;2023-02-28T10:24:49;100287.78;;;4.35;50.83
44697;BME280;57264;47.480;19.354;2023-02-28T10:29:49;100291.97;;;4.55;51.88
44697;BME280;57264;47.480;19.354;2023-02-28T10:32:17;100278.41;;;4.05;51.18
44697;BME280;57264;47.480;19.354;2023-02-28T10:34:43;100282.22;;;3.91;52.06
44697;BME280;57264;47.480;19.354;2023-02-28T10:37:10;100282.50;;;4.07;51.31
44697;BME280;57264;47.480;19.354;2023-02-28T10:39:40;100283.44;;;3.77;53.54
44697;BME280;57264;47.480;19.354;2023-02-28T10:42:25;100276.59;;;4.05;52.05
44697;BME280;57264;47.480;19.354;2023-02-28T10:45:18;100276.50;;;3.88;52.21
44697;BME280;57264;47.480;19.354;2023-02-28T10:50:37;100277.56;;;3.66;51.68
44697;BME280;57264;47.480;19.354;2023-02-28T10:53:14;100267.63;;;3.81;51.60
44697;BME280;57264;47.480;19.354;2023-02-28T10:55:41;100265.56;;;4.13;51.07
44697;BME280;57264;47.480;19.354;2023-02-28T10:58:29;100267.88;;;4.06;51.77
44697;BME280;57264;47.480;19.354;2023-02-28T11:00:54;100275.41;;;3.71;52.81
44697;BME280;57264;47.480;19.354;2023-02-28T11:03:38;100268.44;;;3.81;52.90
44697;BME280;57264;47.480;19.354;2023-02-28T11:06:06;100271.84;;;4.01;51.75
44697;BME280;57264;47.480;19.354;2023-02-28T11:08:33;100271.78;;;4.30;51.18
44697;BME280;57264;47.480;19.354;2023-02-28T11:11:04;100266.75;;;4.18;51.36
44697;BME280;57264;47.480;19.354;2023-02-28T11:13:35;100263.84;;;4.41;51.42
44697;BME280;57264;47.480;19.354;2023-02-28T11:16:09;100264.81;;;4.30;51.65
44697;BME280;57264;47.480;19.354;2023-02-28T11:18:40;100266.03;;;4.36;50.85
44697;BME280;57264;47.480;19.354;2023-02-28T11:21:08;100262.38;;;4.65;50.04
44697;BME280;57264;47.480;19.354;2023-02-28T11:23:36;100261.50;;;4.84;48.88
44697;BME280;57264;47.480;19.354;2023-02-28T11:26:05;100259.19;;;4.81;50.86
44697;BME280;57264;47.480;19.354;2023-02-28T11:28:36;100263.16;;;4.39;50.32
44697;BME280;57264;47.480;19.354;2023-02-28T11:31:17;100270.31;;;4.17;50.69
44697;BME280;57264;47.480;19.354;2023-02-28T11:33:54;100261.19;;;3.94;51.37
44697;BME280;57264;47.480;19.354;2023-02-28T11:36:30;100259.94;;;4.08;52.85
44697;BME280;57264;47.480;19.354;2023-02-28T11:38:59;100251.44;;;4.15;51.92
44697;BME280;57264;47.480;19.354;2023-02-28T11:46:47;100256.22;;;4.20;51.36
44697;BME280;57264;47.480;19.354;2023-02-28T11:52:48;100237.75;;;4.33;51.00
44697;BME280;57264;47.480;19.354;2023-02-28T11:55:21;100243.06;;;4.41;50.37
44697;BME280;57264;47.480;19.354;2023-02-28T11:58:10;100245.41;;;4.24;51.17
44697;BME280;57264;47.480;19.354;2023-02-28T12:01:12;100237.97;;;4.49;50.47
44697;BME280;57264;47.480;19.354;2023-02-28T12:09:13;100234.91;;;4.90;50.07
44697;BME280;57264;47.480;19.354;2023-02-28T12:11:51;100232.28;;;4.63;49.62
44697;BME280;57264;47.480;19.354;2023-02-28T12:14:50;100234.88;;;4.63;50.88
44697;BME280;57264;47.480;19.354;2023-02-28T12:25:30;100232.16;;;4.92;50.23
44697;BME280;57264;47.480;19.354;2023-02-28T12:28:02;100220.94;;;4.64;50.81
44697;BME280;57264;47.480;19.354;2023-02-28T12:30:32;100218.53;;;4.80;50.71
44697;BME280;57264;47.480;19.354;2023-02-28T12:33:09;100229.88;;;4.52;50.94
44697;BME280;57264;47.480;19.354;2023-02-28T12:35:41;100222.16;;;4.23;51.13
44697;BME280;57264;47.480;19.354;2023-02-28T12:38:13;100224.03;;;4.77;51.75
44697;BME280;57264;47.480;19.354;2023-02-28T12:43:46;100211.41;;;5.09;50.61
44697;BME280;57264;47.480;19.354;2023-02-28T12:46:21;100210.03;;;4.51;50.63
44697;BME280;57264;47.480;19.354;2023-02-28T12:48:52;100213.72;;;4.85;51.50
44697;BME280;57264;47.480;19.354;2023-02-28T12:51:22;100215.44;;;4.94;51.32
44697;BME280;57264;47.480;19.354;2023-02-28T13:02:02;100201.06;;;5.53;51.27
44697;BME280;57264;47.480;19.354;2023-02-28T13:09:56;100203.06;;;5.24;51.31
44697;BME280;57264;47.480;19.354;2023-02-28T13:12:23;100188.63;;;5.64;50.05
44697;BME280;57264;47.480;19.354;2023-02-28T13:14:49;100188.75;;;5.98;48.90
44697;BME280;57264;47.480;19.354;2023-02-28T13:17:22;100195.44;;;6.27;48.97
44697;BME280;57264;47.480;19.354;2023-02-28T13:20:15;100197.25;;;6.00;48.45
44697;BME280;57264;47.480;19.354;2023-02-28T13:22:46;100197.41;;;5.46;49.54
44697;BME280;57264;47.480;19.354;2023-02-28T13:28:09;100196.31;;;4.86;50.91
44697;BME280;57264;47.480;19.354;2023-02-28T13:38:43;100189.66;;;4.46;52.21
44697;BME280;57264;47.480;19.354;2023-02-28T13:49:31;100174.97;;;4.82;51.59
44697;BME280;57264;47.480;19.354;2023-02-28T13:52:19;100180.44;;;4.89;51.80
44697;BME280;57264;47.480;19.354;2023-02-28T13:57:50;100171.16;;;5.22;51.44
44697;BME280;57264;47.480;19.354;2023-02-28T14:03:18;100165.63;;;4.62;52.17
44697;BME280;57264;47.480;19.354;2023-02-28T14:06:18;100161.53;;;4.87;52.64
44697;BME280;57264;47.480;19.354;2023-02-28T14:08:57;100161.09;;;4.91;51.70
44697;BME280;57264;47.480;19.354;2023-02-28T14:13:51;100158.19;;;4.77;52.15
44697;BME280;57264;47.480;19.354;2023-02-28T14:16:20;100163.84;;;4.62;52.63
44697;BME280;57264;47.480;19.354;2023-02-28T14:19:02;100163.53;;;4.48;53.77
44697;BME280;57264;47.480;19.354;2023-02-28T14:21:36;100160.00;;;4.66;52.86
44697;BME280;57264;47.480;19.354;2023-02-28T14:24:38;100157.38;;;4.49;53.40
44697;BME280;57264;47.480;19.354;2023-02-28T14:37:52;100156.44;;;4.67;53.12
44697;BME280;57264;47.480;19.354;2023-02-28T14:40:27;100152.44;;;4.46;53.48
44697;BME280;57264;47.480;19.354;2023-02-28T14:43:00;100155.91;;;4.64;53.29
44697;BME280;57264;47.480;19.354;2023-02-28T14:45:32;100151.38;;;4.66;53.00
44697;BME280;57264;47.480;19.354;2023-02-28T14:47:58;100159.16;;;4.48;53.49
44697;BME280;57264;47.480;19.354;2023-02-28T14:50:34;100154.38;;;4.44;54.20
44697;BME280;57264;47.480;19.354;2023-02-28T14:53:01;100155.13;;;4.54;54.66
44697;BME280;57264;47.480;19.354;2023-02-28T14:55:32;100157.09;;;4.52;54.34
44697;BME280;57264;47.480;19.354;2023-02-28T14:58:01;100152.41;;;4.55;54.57
44697;BME280;57264;47.480;19.354;2023-02-28T15:00:36;100151.69;;;4.36;54.71
44697;BME280;57264;47.480;19.354;2023-02-28T15:06:14;100157.91;;;4.52;54.46
44697;BME280;57264;47.480;19.354;2023-02-28T15:08:40;100162.28;;;4.15;55.78
44697;BME280;57264;47.480;19.354;2023-02-28T15:11:15;100159.44;;;4.08;56.23
44697;BME280;57264;47.480;19.354;2023-02-28T15:13:47;100162.81;;;4.18;56.06
44697;BME280;57264;47.480;19.354;2023-02-28T15:16:21;100162.59;;;4.02;56.77
44697;BME280;57264;47.480;19.354;2023-02-28T15:21:36;100160.81;;;4.03;56.64
44697;BME280;57264;47.480;19.354;2023-02-28T15:26:54;100163.72;;;3.90;57.35
44697;BME280;57264;47.480;19.354;2023-02-28T15:29:23;100167.72;;;3.85;57.44
44697;BME280;57264;47.480;19.354;2023-02-28T15:32:00;100173.72;;;3.85;57.46
44697;BME280;57264;47.480;19.354;2023-02-28T15:34:33;100165.94;;;3.75;57.93
44697;BME280;57264;47.480;19.354;2023-02-28T15:36:59;100167.28;;;3.80;57.98
44697;BME280;57264;47.480;19.354;2023-02-28T15:39:27;100164.28;;;3.74;57.97
44697;BME280;57264;47.480;19.354;2023-02-28T15:42:16;100163.34;;;3.66;58.38
44697;BME280;57264;47.480;19.354;2023-02-28T15:44:43;100165.81;;;3.58;58.82
44697;BME280;57264;47.480;19.354;2023-02-28T15:47:19;100160.88;;;3.74;58.80
44697;BME280;57264;47.480;19.354;2023-02-28T15:49:49;100161.56;;;3.66;58.71
44697;BME280;57264;47.480;19.354;2023-02-28T15:52:19;100161.56;;;3.76;58.48
44697;BME280;57264;47.480;19.354;2023-02-28T15:54:47;100154.84;;;3.73;58.54
44697;BME280;57264;47.480;19.354;2023-02-28T15:57:33;100163.63;;;3.53;59.52
44697;BME280;57264;47.480;19.354;2023-02-28T16:00:03;100158.75;;;3.41;59.67
44697;BME280;57264;47.480;19.354;2023-02-28T16:02:36;100156.13;;;3.31;60.34
44697;BME280;57264;47.480;19.354;2023-02-28T16:05:16;100155.19;;;3.32;60.63
44697;BME280;57264;47.480;19.354;2023-02-28T16:07:54;100160.22;;;3.34;59.94
44697;BME280;57264;47.480;19.354;2023-02-28T16:10:21;100165.53;;;3.22;59.97
44697;BME280;57264;47.480;19.354;2023-02-28T16:12:50;100168.53;;;3.18;60.91
44697;BME280;57264;47.480;19.354;2023-02-28T16:15:21;100161.06;;;3.24;60.47
44697;BME280;57264;47.480;19.354;2023-02-28T16:17:47;100173.75;;;3.27;60.01
44697;BME280;57264;47.480;19.354;2023-02-28T16:22:44;100177.56;;;3.04;60.99
44697;BME280;57264;47.480;19.354;2023-02-28T16:25:19;100171.28;;;3.07;61.41
44697;BME280;57264;47.480;19.354;2023-02-28T16:27:48;100171.28;;;3.16;61.03
44697;BME280;57264;47.480;19.354;2023-02-28T16:30:26;100165.97;;;3.27;60.86
44697;BME280;57264;47.480;19.354;2023-02-28T16:32:54;100170.47;;;3.25;60.71
44697;BME280;57264;47.480;19.354;2023-02-28T16:35:21;100170.19;;;3.19;61.04
44697;BME280;57264;47.480;19.354;2023-02-28T16:37:47;100169.78;;;3.23;61.11
44697;BME280;57264;47.480;19.354;2023-02-28T16:40:18;100179.34;;;3.23;61.08
44697;BME280;57264;47.480;19.354;2023-02-28T16:42:53;100171.84;;;3.20;61.21
44697;BME280;57264;47.480;19.354;2023-02-28T16:45:22;100180.56;;;3.19;61.81
44697;BME280;57264;47.480;19.354;2023-02-28T16:47:48;100182.19;;;3.10;61.90
44697;BME280;57264;47.480;19.354;2023-02-28T16:50:28;100183.28;;;3.17;61.78
44697;BME280;57264;47.480;19.354;2023-02-28T16:52:54;100182.34;;;3.18;61.52
44697;BME280;57264;47.480;19.354;2023-02-28T16:55:21;100190.13;;;3.18;61.58
44697;BME280;57264;47.480;19.354;2023-02-28T16:57:53;100177.84;;;3.20;61.28
44697;BME280;57264;47.480;19.354;2023-02-28T17:00:19;100188.91;;;3.13;62.07
44697;BME280;57264;47.480;19.354;2023-02-28T17:02:45;100191.78;;;3.19;61.22
44697;BME280;57264;47.480;19.354;2023-02-28T17:05:11;100190.81;;;3.20;61.70
44697;BME280;57264;47.480;19.354;2023-02-28T17:07:38;100192.59;;;3.20;61.34
44697;BME280;57264;47.480;19.354;2023-02-28T17:10:14;100197.78;;;3.20;61.30
44697;BME280;57264;47.480;19.354;2023-02-28T17:12:39;100196.25;;;3.17;61.45
44697;BME280;57264;47.480;19.354;2023-02-28T17:15:08;100200.63;;;3.07;61.56
44697;BME280;57264;47.480;19.354;2023-02-28T17:17:34;100204.16;;;3.06;61.87
44697;BME280;57264;47.480;19.354;2023-02-28T17:19:59;100203.50;;;3.14;61.51
44697;BME280;57264;47.480;19.354;2023-02-28T17:22:25;100201.06;;;3.12;61.75
44697;BME280;57264;47.480;19.354;2023-02-28T17:24:51;100202.00;;;3.11;61.65
44697;BME280;57264;47.480;19.354;2023-02-28T17:27:21;100198.31;;;3.14;62.16
44697;BME280;57264;47.480;19.354;2023-02-28T17:29:47;100200.06;;;3.13;61.71
44697;BME280;57264;47.480;19.354;2023-02-28T17:32:13;100206.22;;;3.22;61.72
44697;BME280;57264;47.480;19.354;2023-02-28T17:34:38;100195.06;;;3.31;61.74
44697;BME280;57264;47.480;19.354;2023-02-28T17:37:04;100198.06;;;3.26;61.79
44697;BME280;57264;47.480;19.354;2023-02-28T17:39:29;100193.41;;;3.30;61.56
44697;BME280;57264;47.480;19.354;2023-02-28T17:41:56;100195.59;;;3.15;61.90
44697;BME280;57264;47.480;19.354;2023-02-28T17:44:23;100198.72;;;3.19;62.05
44697;BME280;57264;47.480;19.354;2023-02-28T17:46:49;100194.75;;;3.15;62.18
44697;BME280;57264;47.480;19.354;2023-02-28T17:49:17;100194.09;;;3.22;62.01
44697;BME280;57264;47.480;19.354;2023-02-28T17:51:42;100206.22;;;3.22;62.45
44697;BME280;57264;47.480;19.354;2023-02-28T17:54:08;100200.78;;;3.15;62.36
44697;BME280;57264;47.480;19.354;2023-02-28T17:56:34;100201.56;;;3.06;63.21
44697;BME280;57264;47.480;19.354;2023-02-28T17:59:00;100198.47;;;3.12;62.91
44697;BME280;57264;47.480;19.354;2023-02-28T18:01:26;100205.53;;;3.01;63.76
44697;BME280;57264;47.480;19.354;2023-02-28T18:03:52;100208.13;;;3.10;62.99
44697;BME280;57264;47.480;19.354;2023-02-28T18:06:25;100210.19;;;3.07;63.18
44697;BME280;57264;47.480;19.354;2023-02-28T18:08:52;100209.75;;;3.02;63.01
44697;BME280;57264;47.480;19.354;2023-02-28T18:11:19;100206.34;;;3.01;63.66
44697;BME280;57264;47.480;19.354;2023-02-28T18:13:48;100211.38;;;2.93;63.71
44697;BME280;57264;47.480;19.354;2023-02-28T18:16:15;100205.22;;;2.94;63.95
44697;BME280;57264;47.480;19.354;2023-02-28T18:18:40;100209.75;;;2.92;64.54
44697;BME280;57264;47.480;19.354;2023-02-28T18:21:08;100212.19;;;2.84;64.95
44697;BME280;57264;47.480;19.354;2023-02-28T18:23:34;100214.50;;;2.87;64.54
44697;BME280;57264;47.480;19.354;2023-02-28T18:26:00;100210.00;;;2.89;64.29
44697;BME280;57264;47.480;19.354;2023-02-28T18:28:26;100204.28;;;2.95;64.52
44697;BME280;57264;47.480;19.354;2023-02-28T18:30:52;100219.41;;;2.90;64.52
44697;BME280;57264;47.480;19.354;2023-02-28T18:33:17;100223.25;;;2.96;64.71
44697;BME280;57264;47.480;19.354;2023-02-28T18:35:44;100223.41;;;3.04;64.26
44697;BME280;57264;47.480;19.354;2023-02-28T18:38:13;100222.59;;;3.03;64.13
44697;BME280;57264;47.480;19.354;2023-02-28T18:40:40;100219.72;;;2.97;64.40
44697;BME280;57264;47.480;19.354;2023-02-28T18:43:07;100223.66;;;2.91;64.61
44697;BME280;57264;47.480;19.354;2023-02-28T18:45:37;100214.50;;;2.87;65.04
44697;BME280;57264;47.480;19.354;2023-02-28T18:48:02;100215.19;;;2.89;65.14
44697;BME280;57264;47.480;19.354;2023-02-28T18:50:28;100213.13;;;2.83;65.53
44697;BME280;57264;47.480;19.354;2023-02-28T18:52:53;100214.78;;;2.84;65.92
44697;BME280;57264;47.480;19.354;2023-02-28T18:55:19;100217.59;;;2.81;65.67
44697;BME280;57264;47.480;19.354;2023-02-28T18:57:46;100214.34;;;2.79;65.76
44697;BME280;57264;47.480;19.354;2023-02-28T19:00:12;100216.53;;;2.83;65.79
44697;BME280;57264;47.480;19.354;2023-02-28T19:02:38;100214.38;;;2.89;65.57
44697;BME280;57264;47.480;19.354;2023-02-28T19:05:04;100210.28;;;2.96;65.16
44697;BME280;57264;47.480;19.354;2023-02-28T19:07:30;100211.44;;;3.12;64.27
44697;BME280;57264;47.480;19.354;2023-02-28T19:09:55;100212.22;;;3.03;64.82
44697;BME280;57264;47.480;19.354;2023-02-28T19:12:21;100213.00;;;2.94;65.48
44697;BME280;57264;47.480;19.354;2023-02-28T19:14:46;100208.88;;;2.82;66.10
44697;BME280;57264;47.480;19.354;2023-02-28T19:17:12;100212.25;;;2.73;65.83
44697;BME280;57264;47.480;19.354;2023-02-28T19:19:40;100214.19;;;2.71;66.47
44697;BME280;57264;47.480;19.354;2023-02-28T19:22:05;100211.59;;;2.71;66.65
44697;BME280;57264;47.480;19.354;2023-02-28T19:24:31;100220.31;;;2.70;66.39
44697;BME280;57264;47.480;19.354;2023-02-28T19:26:59;100219.56;;;2.98;65.15
44697;BME280;57264;47.480;19.354;2023-02-28T19:29:25;100214.38;;;2.98;64.64
44697;BME280;57264;47.480;19.354;2023-02-28T19:31:50;100218.16;;;2.75;65.35
44697;BME280;57264;47.480;19.354;2023-02-28T19:34:17;100217.56;;;2.62;65.61
44697;BME280;57264;47.480;19.354;2023-02-28T19:36:43;100218.19;;;2.54;66.14
44697;BME280;57264;47.480;19.354;2023-02-28T19:39:11;100212.38;;;2.62;65.68
44697;BME280;57264;47.480;19.354;2023-02-28T19:41:36;100221.19;;;2.80;65.16
44697;BME280;57264;47.480;19.354;2023-02-28T19:44:02;100212.91;;;2.65;65.04
44697;BME280;57264;47.480;19.354;2023-02-28T19:46:27;100213.75;;;2.66;65.54
44697;BME280;57264;47.480;19.354;2023-02-28T19:48:53;100212.09;;;2.65;65.60
44697;BME280;57264;47.480;19.354;2023-02-28T19:51:19;100213.56;;;2.58;65.78
44697;BME280;57264;47.480;19.354;2023-02-28T19:53:45;100213.03;;;2.54;65.66
44697;BME280;57264;47.480;19.354;2023-02-28T19:56:11;100216.44;;;2.55;65.93
44697;BME280;57264;47.480;19.354;2023-02-28T19:58:37;100210.13;;;2.48;65.55
44697;BME280;57264;47.480;19.354;2023-02-28T20:01:21;100227.56;;;2.46;66.27
44697;BME280;57264;47.480;19.354;2023-02-28T20:03:48;100219.94;;;2.44;66.24
44697;BME280;57264;47.480;19.354;2023-02-28T20:06:14;100221.97;;;2.41;66.41
44697;BME280;57264;47.480;19.354;2023-02-28T20:08:40;100219.50;;;2.39;66.41
44697;BME280;57264;47.480;19.354;2023-02-28T20:11:08;100225.50;;;2.40;66.13
44697;BME280;57264;47.480;19.354;2023-02-28T20:13:34;100216.22;;;2.37;66.19
44697;BME280;57264;47.480;19.354;2023-02-28T20:16:00;100213.63;;;2.37;66.19
44697;BME280;57264;47.480;19.354;2023-02-28T20:18:27;100216.91;;;2.39;66.17
44697;BME280;57264;47.480;19.354;2023-02-28T20:20:53;100219.38;;;2.41;66.12
44697;BME280;57264;47.480;19.354;2023-02-28T20:23:19;100220.78;;;2.45;66.20
44697;BME280;57264;47.480;19.354;2023-02-28T20:25:45;100221.97;;;2.41;66.13
44697;BME280;57264;47.480;19.354;2023-02-28T20:28:10;100210.91;;;2.39;66.31
44697;BME280;57264;47.480;19.354;2023-02-28T20:30:37;100212.56;;;2.40;66.06
44697;BME280;57264;47.480;19.354;2023-02-28T20:33:03;100217.56;;;2.62;65.81
44697;BME280;57264;47.480;19.354;2023-02-28T20:35:28;100207.66;;;2.76;65.22
44697;BME280;57264;47.480;19.354;2023-02-28T20:37:54;100205.88;;;2.77;64.54
44697;BME280;57264;47.480;19.354;2023-02-28T20:40:19;100212.63;;;2.59;65.16
44697;BME280;57264;47.480;19.354;2023-02-28T20:42:45;100207.00;;;2.54;65.22
44697;BME280;57264;47.480;19.354;2023-02-28T20:45:11;100213.56;;;2.58;65.47
44697;BME280;57264;47.480;19.354;2023-02-28T20:47:36;100199.00;;;2.66;65.31
44697;BME280;57264;47.480;19.354;2023-02-28T20:50:02;100214.34;;;2.79;65.54
44697;BME280;57264;47.480;19.354;2023-02-28T20:52:28;100202.88;;;2.72;65.13
44697;BME280;57264;47.480;19.354;2023-02-28T20:54:53;100206.66;;;2.68;65.37
44697;BME280;57264;47.480;19.354;2023-02-28T20:57:19;100210.31;;;2.65;65.43
44697;BME280;57264;47.480;19.354;2023-02-28T20:59:44;100211.16;;;2.66;65.18
44697;BME280;57264;47.480;19.354;2023-02-28T21:02:15;100208.44;;;2.67;65.90
44697;BME280;57264;47.480;19.354;2023-02-28T21:04:42;100214.28;;;2.60;65.57
44697;BME280;57264;47.480;19.354;2023-02-28T21:07:08;100206.50;;;2.60;65.92
44697;BME280;57264;47.480;19.354;2023-02-28T21:09:37;100204.13;;;2.47;65.93
44697;BME280;57264;47.480;19.354;2023-02-28T21:12:02;100196.56;;;2.34;66.31
44697;BME280;57264;47.480;19.354;2023-02-28T21:14:28;100197.31;;;2.46;66.23
44697;BME280;57264;47.480;19.354;2023-02-28T21:16:54;100200.00;;;2.35;66.38
44697;BME280;57264;47.480;19.354;2023-02-28T21:19:24;100199.56;;;2.30;66.88
44697;BME280;57264;47.480;19.354;2023-02-28T21:21:50;100203.84;;;2.41;66.81
44697;BME280;57264;47.480;19.354;2023-02-28T21:24:18;100200.66;;;2.37;67.50
44697;BME280;57264;47.480;19.354;2023-02-28T21:26:45;100199.16;;;2.34;67.11
44697;BME280;57264;47.480;19.354;2023-02-28T21:29:13;100206.59;;;2.49;66.57
44697;BME280;57264;47.480;19.354;2023-02-28T21:31:39;100199.69;;;2.59;65.56
44697;BME280;57264;47.480;19.354;2023-02-28T21:34:07;100190.03;;;2.70;65.94
44697;BME280;57264;47.480;19.354;2023-02-28T21:36:40;100194.53;;;2.78;65.93
44697;BME280;57264;47.480;19.354;2023-02-28T21:39:14;100196.19;;;2.79;65.53
44697;BME280;57264;47.480;19.354;2023-02-28T21:41:41;100197.56;;;2.83;65.37
44697;BME280;57264;47.480;19.354;2023-02-28T21:44:09;100190.56;;;2.64;65.81
44697;BME280;57264;47.480;19.354;2023-02-28T21:46:46;100204.41;;;2.54;65.62
44697;BME280;57264;47.480;19.354;2023-02-28T21:49:13;100198.13;;;2.47;66.49
44697;BME280;57264;47.480;19.354;2023-02-28T21:51:39;100190.63;;;2.53;66.16
44697;BME280;57264;47.480;19.354;2023-02-28T21:54:07;100186.78;;;2.38;66.78
44697;BME280;57264;47.480;19.354;2023-02-28T21:56:33;100193.53;;;2.29;67.44
44697;BME280;57264;47.480;19.354;2023-02-28T21:59:00;100195.91;;;2.32;67.24
44697;BME280;57264;47.480;19.354;2023-02-28T22:01:28;100195.38;;;2.39;66.91
44697;BME280;57264;47.480;19.354;2023-02-28T22:03:56;100195.91;;;2.32;66.92
44697;BME280;57264;47.480;19.354;2023-02-28T22:06:25;100192.22;;;2.35;66.92
44697;BME280;57264;47.480;19.354;2023-02-28T22:08:52;100195.31;;;2.29;66.56
44697;BME280;57264;47.480;19.354;2023-02-28T22:11:20;100196.41;;;2.26;67.23
44697;BME280;57264;47.480;19.354;2023-02-28T22:13:46;100197.91;;;2.29;67.06
44697;BME280;57264;47.480;19.354;2023-02-28T22:16:18;100196.84;;;2.31;67.09
44697;BME280;57264;47.480;19.354;2023-02-28T22:18:45;100201.31;;;2.29;67.03
44697;BME280;57264;47.480;19.354;2023-02-28T22:21:13;100203.22;;;2.27;67.68
44697;BME280;57264;47.480;19.354;2023-02-28T22:23:42;100198.50;;;2.32;67.46
44697;BME280;57264;47.480;19.354;2023-02-28T22:26:11;100198.34;;;2.34;67.16
44697;BME280;57264;47.480;19.354;2023-02-28T22:28:38;100196.25;;;2.49;66.94
44697;BME280;57264;47.480;19.354;2023-02-28T22:31:16;100194.03;;;2.84;65.96
44697;BME280;57264;47.480;19.354;2023-02-28T22:33:43;100200.94;;;2.64;65.63
44697;BME280;57264;47.480;19.354;2023-02-28T22:36:11;100200.34;;;2.51;66.28
44697;BME280;57264;47.480;19.354;2023-02-28T22:38:38;100208.38;;;2.48;66.49
44697;BME280;57264;47.480;19.354;2023-02-28T22:41:05;100208.94;;;2.61;66.57
44697;BME280;57264;47.480;19.354;2023-02-28T22:43:32;100205.88;;;2.77;66.23
44697;BME280;57264;47.480;19.354;2023-02-28T22:46:02;100208.25;;;2.99;65.63
44697;BME280;57264;47.480;19.354;2023-02-28T22:48:29;100204.00;;;2.98;64.53
44697;BME280;57264;47.480;19.354;2023-02-28T22:51:06;100209.31;;;2.87;65.10
44697;BME280;57264;47.480;19.354;2023-02-28T22:53:34;100209.25;;;2.68;65.88
44697;BME280;57264;47.480;19.354;2023-02-28T22:56:00;100210.66;;;2.81;65.79
44697;BME280;57264;47.480;19.354;2023-02-28T22:58:27;100212.84;;;2.86;65.70
44697;BME280;57264;47.480;19.354;2023-02-28T23:00:53;100207.78;;;2.75;65.51
44697;BME280;57264;47.480;19.354;2023-02-28T23:03:23;100216.88;;;2.60;66.00
44697;BME280;57264;47.480;19.354;2023-02-28T23:05:49;100213.41;;;2.50;67.08
44697;BME280;57264;47.480;19.354;2023-02-28T23:08:15;100208.38;;;2.48;66.74
44697;BME280;57264;47.480;19.354;2023-02-28T23:10:48;100203.31;;;2.87;65.53
44697;BME280;57264;47.480;19.354;2023-02-28T23:13:16;100204.13;;;2.87;65.74
44697;BME280;57264;47.480;19.354;2023-02-28T23:15:42;100201.69;;;2.95;64.65
44697;BME280;57264;47.480;19.354;2023-02-28T23:18:24;100204.25;;;2.76;64.81
44697;BME280;57264;47.480;19.354;2023-02-28T23:20:49;100201.88;;;2.73;64.89
44697;BME280;57264;47.480;19.354;2023-02-28T23:23:15;100202.03;;;2.71;65.45
44697;BME280;57264;47.480;19.354;2023-02-28T23:25:41;100197.19;;;2.88;64.89
44697;BME280;57264;47.480;19.354;2023-02-28T23:28:07;100202.31;;;2.78;65.35
44697;BME280;57264;47.480;19.354;2023-02-28T23:30:36;100206.84;;;2.46;66.60
44697;BME280;57264;47.480;19.354;2023-02-28T23:33:04;100206.94;;;2.34;67.21
44697;BME280;57264;47.480;19.354;2023-02-28T23:35:31;100203.91;;;2.29;67.21
44697;BME280;57264;47.480;19.354;2023-02-28T23:37:57;100191.41;;;2.34;67.11
44697;BME280;57264;47.480;19.354;2023-02-28T23:40:26;100194.28;;;2.41;66.26
44697;BME280;57264;47.480;19.354;2023-02-28T23:42:52;100190.44;;;2.35;66.55
44697;BME280;57264;47.480;19.354;2023-02-28T23:45:18;100184.38;;;2.25;67.35
44697;BME280;57264;47.480;19.354;2023-02-28T23:47:44;100186.75;;;2.28;66.76
44697;BME280;57264;47.480;19.354;2023-02-28T23:50:10;100181.50;;;2.19;67.13
44697;BME280;57264;47.480;19.354;2023-02-28T23:52:36;100181.06;;;2.14;67.36
44697;BME280;57264;47.480;19.354;2023-02-28T23:55:02;100181.06;;;2.14;67.79
44697;BME280;57264;47.480;19.354;2023-02-28T23:57:28;100186.38;;;2.12;67.73
44697;BME280;57264;47.480;19.354;2023-02-28T23:59:54;100185.69;;;2.10;67.42
